sensor_id;sensor_type;location;lat;lon;timestamp;pressure;altitude;pressure_sealevel;temperature;humidity
62201;BME280;48197;42.732;27.192;2023-05-24T00:02:08;99463.34;;;13.50;100.00
62201;BME280;48197;42.732;27.192;2023-05-24T00:04:39;99464.28;;;13.43;100.00
62201;BME280;48197;42.732;27.192;2023-05-24T00:07:07;99457.59;;;13.40;100.00
62201;BME280;48197;42.732;27.192;2023-05-24T00:09:33;99446.91;;;13.39;100.00
62201;BME280;48197;42.732;27.192;2023-05-24T00:12:01;99450.47;;;13.39;100.00
62201;BME280;48197;42.732;27.192;2023-05-24T00:14:27;99456.81;;;13.40;100.00
62201;BME280;48197;42.732;27.192;2023-05-24T00:16:54;99458.72;;;13.43;100.00
62201;BME280;48197;42.732;27.192;2023-05-24T00:19:20;99467.00;;;13.46;100.00
62201;BME280;48197;42.732;27.192;2023-05-24T00:21:48;99467.75;;;13.47;100.00
62201;BME280;48197;42.732;27.192;2023-05-24T00:24:15;99459.84;;;13.45;100.00
62201;BME280;48197;42.732;27.192;2023-05-24T00:26:43;99461.44;;;13.46;100.00
62201;BME280;48197;42.732;27.192;2023-05-24T00:29:10;99453.88;;;13.47;100.00
62201;BME280;48197;42.732;27.192;2023-05-24T00:31:37;99461.34;;;13.50;100.00
62201;BME280;48197;42.732;27.192;2023-05-24T00:34:03;99458.13;;;13.52;100.00
62201;BME280;48197;42.732;27.192;2023-05-24T00:36:30;99461.25;;;13.54;100.00
62201;BME280;48197;42.732;27.192;2023-05-24T00:38:58;99458.84;;;13.56;100.00
62201;BME280;48197;42.732;27.192;2023-05-24T00:41:25;99455.28;;;13.55;100.00
62201;BME280;48197;42.732;27.192;2023-05-24T00:43:52;99449.47;;;13.50;100.00
62201;BME280;48197;42.732;27.192;2023-05-24T00:46:26;99451.94;;;13.44;100.00
62201;BME280;48197;42.732;27.192;2023-05-24T00:48:54;99450.91;;;13.38;100.00
62201;BME280;48197;42.732;27.192;2023-05-24T00:51:21;99447.44;;;13.34;100.00
62201;BME280;48197;42.732;27.192;2023-05-24T00:53:48;99453.34;;;13.36;100.00
62201;BME280;48197;42.732;27.192;2023-05-24T00:56:16;99459.75;;;13.33;100.00
62201;BME280;48197;42.732;27.192;2023-05-24T00:58:43;99455.06;;;13.30;100.00
62201;BME280;48197;42.732;27.192;2023-05-24T01:01:10;99452.28;;;13.30;100.00
62201;BME280;48197;42.732;27.192;2023-05-24T01:03:37;99453.84;;;13.31;100.00
62201;BME280;48197;42.732;27.192;2023-05-24T01:06:05;99452.63;;;13.32;100.00
62201;BME280;48197;42.732;27.192;2023-05-24T01:11:20;99441.75;;;13.21;100.00
62201;BME280;48197;42.732;27.192;2023-05-24T01:16:27;99441.44;;;13.15;100.00
62201;BME280;48197;42.732;27.192;2023-05-24T01:18:58;99437.44;;;13.16;100.00
62201;BME280;48197;42.732;27.192;2023-05-24T01:21:36;99434.13;;;13.05;100.00
62201;BME280;48197;42.732;27.192;2023-05-24T01:24:17;99446.56;;;12.97;100.00
62201;BME280;48197;42.732;27.192;2023-05-24T01:27:11;99444.03;;;12.86;100.00
62201;BME280;48197;42.732;27.192;2023-05-24T01:29:38;99440.75;;;12.91;100.00
62201;BME280;48197;42.732;27.192;2023-05-24T01:32:05;99450.22;;;12.94;100.00
62201;BME280;48197;42.732;27.192;2023-05-24T01:34:32;99449.50;;;12.90;100.00
62201;BME280;48197;42.732;27.192;2023-05-24T01:36:58;99449.50;;;12.90;100.00
62201;BME280;48197;42.732;27.192;2023-05-24T01:39:26;99444.72;;;12.90;100.00
62201;BME280;48197;42.732;27.192;2023-05-24T01:44:42;99448.88;;;13.02;100.00
62201;BME280;48197;42.732;27.192;2023-05-24T01:47:12;99454.78;;;13.04;100.00
62201;BME280;48197;42.732;27.192;2023-05-24T01:49:43;99452.41;;;13.02;100.00
62201;BME280;48197;42.732;27.192;2023-05-24T01:52:18;99446.50;;;13.00;100.00
62201;BME280;48197;42.732;27.192;2023-05-24T01:54:47;99441.03;;;12.97;100.00
62201;BME280;48197;42.732;27.192;2023-05-24T01:57:17;99446.56;;;12.97;100.00
62201;BME280;48197;42.732;27.192;2023-05-24T01:59:45;99434.00;;;12.92;100.00
62201;BME280;48197;42.732;27.192;2023-05-24T02:02:12;99438.06;;;12.87;100.00
62201;BME280;48197;42.732;27.192;2023-05-24T02:04:39;99442.03;;;12.86;100.00
62201;BME280;48197;42.732;27.192;2023-05-24T02:07:06;99447.66;;;12.83;100.00
62201;BME280;48197;42.732;27.192;2023-05-24T02:09:33;99431.44;;;12.81;100.00
62201;BME280;48197;42.732;27.192;2023-05-24T02:11:59;99431.44;;;12.81;100.00
62201;BME280;48197;42.732;27.192;2023-05-24T02:14:26;99434.22;;;12.81;100.00
62201;BME280;48197;42.732;27.192;2023-05-24T02:16:52;99442.16;;;12.79;100.00
62201;BME280;48197;42.732;27.192;2023-05-24T02:19:24;99433.56;;;12.74;100.00
62201;BME280;48197;42.732;27.192;2023-05-24T02:21:50;99444.66;;;12.74;100.00
62201;BME280;48197;42.732;27.192;2023-05-24T02:24:18;99446.16;;;12.78;100.00
62201;BME280;48197;42.732;27.192;2023-05-24T02:26:44;99456.47;;;12.78;100.00
62201;BME280;48197;42.732;27.192;2023-05-24T02:29:11;99455.06;;;12.70;100.00
62201;BME280;48197;42.732;27.192;2023-05-24T02:31:38;99457.09;;;12.65;100.00
62201;BME280;48197;42.732;27.192;2023-05-24T02:34:05;99465.78;;;12.68;100.00
62201;BME280;48197;42.732;27.192;2023-05-24T02:36:31;99461.00;;;12.68;100.00
62201;BME280;48197;42.732;27.192;2023-05-24T02:39:01;99458.97;;;12.72;100.00
62201;BME280;48197;42.732;27.192;2023-05-24T02:41:29;99465.59;;;12.78;100.00
62201;BME280;48197;42.732;27.192;2023-05-24T02:43:56;99471.84;;;12.82;100.00
62201;BME280;48197;42.732;27.192;2023-05-24T02:46:23;99468.22;;;12.85;100.00
62201;BME280;48197;42.732;27.192;2023-05-24T02:48:49;99475.88;;;12.78;100.00
62201;BME280;48197;42.732;27.192;2023-05-24T02:51:16;99470.88;;;12.69;100.00
62201;BME280;48197;42.732;27.192;2023-05-24T02:53:43;99470.16;;;12.65;100.00
62201;BME280;48197;42.732;27.192;2023-05-24T02:56:10;99473.38;;;12.63;100.00
62201;BME280;48197;42.732;27.192;2023-05-24T02:58:37;99474.16;;;12.64;100.00
62201;BME280;48197;42.732;27.192;2023-05-24T03:01:06;99480.84;;;12.66;100.00
62201;BME280;48197;42.732;27.192;2023-05-24T03:03:33;99478.78;;;12.71;100.00
62201;BME280;48197;42.732;27.192;2023-05-24T03:06:00;99480.22;;;12.79;100.00
62201;BME280;48197;42.732;27.192;2023-05-24T03:08:27;99492.25;;;12.92;100.00
62201;BME280;48197;42.732;27.192;2023-05-24T03:10:54;99488.13;;;13.00;100.00
62201;BME280;48197;42.732;27.192;2023-05-24T03:13:20;99490.38;;;13.05;100.00
62201;BME280;48197;42.732;27.192;2023-05-24T03:15:47;99487.63;;;13.05;100.00
62201;BME280;48197;42.732;27.192;2023-05-24T03:18:14;99486.13;;;13.01;100.00
62201;BME280;48197;42.732;27.192;2023-05-24T03:20:41;99480.56;;;13.01;100.00
62201;BME280;48197;42.732;27.192;2023-05-24T03:23:07;99482.22;;;12.98;100.00
62201;BME280;48197;42.732;27.192;2023-05-24T03:25:34;99479.75;;;13.04;100.00
62201;BME280;48197;42.732;27.192;2023-05-24T03:28:01;99477.22;;;13.10;100.00
62201;BME280;48197;42.732;27.192;2023-05-24T03:30:28;99477.53;;;13.15;100.00
62201;BME280;48197;42.732;27.192;2023-05-24T03:32:55;99473.09;;;13.18;100.00
62201;BME280;48197;42.732;27.192;2023-05-24T03:35:22;99479.44;;;13.18;100.00
62201;BME280;48197;42.732;27.192;2023-05-24T03:37:48;99477.09;;;13.17;100.00
62201;BME280;48197;42.732;27.192;2023-05-24T03:40:16;99484.97;;;13.18;100.00
62201;BME280;48197;42.732;27.192;2023-05-24T03:42:43;99481.00;;;13.19;100.00
62201;BME280;48197;42.732;27.192;2023-05-24T03:45:10;99482.56;;;13.20;100.00
62201;BME280;48197;42.732;27.192;2023-05-24T03:47:37;99485.63;;;13.26;100.00
62201;BME280;48197;42.732;27.192;2023-05-24T03:50:03;99484.28;;;13.34;100.00
62201;BME280;48197;42.732;27.192;2023-05-24T03:52:30;99489.25;;;13.43;100.00
62201;BME280;48197;42.732;27.192;2023-05-24T03:54:57;99484.41;;;13.47;100.00
62201;BME280;48197;42.732;27.192;2023-05-24T03:57:23;99492.16;;;13.56;100.00
62201;BME280;48197;42.732;27.192;2023-05-24T03:59:49;99499.97;;;13.61;100.00
62201;BME280;48197;42.732;27.192;2023-05-24T04:02:16;99498.25;;;13.67;100.00
62201;BME280;48197;42.732;27.192;2023-05-24T04:04:43;99498.78;;;13.78;100.00
62201;BME280;48197;42.732;27.192;2023-05-24T04:07:10;99500.63;;;13.85;100.00
62201;BME280;48197;42.732;27.192;2023-05-24T04:09:39;99497.25;;;13.94;100.00
62201;BME280;48197;42.732;27.192;2023-05-24T04:12:05;99495.06;;;14.01;100.00
62201;BME280;48197;42.732;27.192;2023-05-24T04:14:32;99496.47;;;14.09;100.00
62201;BME280;48197;42.732;27.192;2023-05-24T04:16:58;99506.75;;;14.13;100.00
62201;BME280;48197;42.732;27.192;2023-05-24T04:19:25;99508.22;;;14.17;100.00
62201;BME280;48197;42.732;27.192;2023-05-24T04:21:52;99512.03;;;14.23;100.00
62201;BME280;48197;42.732;27.192;2023-05-24T04:24:18;99513.31;;;14.35;100.00
62201;BME280;48197;42.732;27.192;2023-05-24T04:26:45;99501.16;;;14.45;100.00
62201;BME280;48197;42.732;27.192;2023-05-24T04:29:12;99509.59;;;14.58;100.00
62201;BME280;48197;42.732;27.192;2023-05-24T04:31:42;99507.03;;;14.80;100.00
62201;BME280;48197;42.732;27.192;2023-05-24T04:34:10;99499.75;;;14.99;100.00
62201;BME280;48197;42.732;27.192;2023-05-24T04:36:39;99503.91;;;15.07;100.00
62201;BME280;48197;42.732;27.192;2023-05-24T04:39:06;99499.81;;;15.25;100.00
62201;BME280;48197;42.732;27.192;2023-05-24T04:41:33;99498.97;;;15.41;100.00
62201;BME280;48197;42.732;27.192;2023-05-24T04:44:04;99497.44;;;15.52;100.00
62201;BME280;48197;42.732;27.192;2023-05-24T04:46:31;99496.09;;;15.57;100.00
62201;BME280;48197;42.732;27.192;2023-05-24T04:48:57;99494.53;;;15.43;100.00
62201;BME280;48197;42.732;27.192;2023-05-24T04:51:24;99489.31;;;15.58;100.00
62201;BME280;48197;42.732;27.192;2023-05-24T04:53:51;99489.25;;;15.75;100.00
62201;BME280;48197;42.732;27.192;2023-05-24T04:56:18;99499.59;;;15.87;100.00
62201;BME280;48197;42.732;27.192;2023-05-24T04:58:46;99494.66;;;16.17;100.00
62201;BME280;48197;42.732;27.192;2023-05-24T05:01:13;99498.56;;;16.67;100.00
62201;BME280;48197;42.732;27.192;2023-05-24T05:03:40;99489.78;;;17.12;100.00
62201;BME280;48197;42.732;27.192;2023-05-24T05:06:08;99492.22;;;17.54;100.00
62201;BME280;48197;42.732;27.192;2023-05-24T05:08:35;99494.56;;;17.56;100.00
62201;BME280;48197;42.732;27.192;2023-05-24T05:11:02;99500.00;;;17.60;100.00
62201;BME280;48197;42.732;27.192;2023-05-24T05:13:29;99491.44;;;17.85;100.00
62201;BME280;48197;42.732;27.192;2023-05-24T05:15:56;99508.88;;;17.99;100.00
62201;BME280;48197;42.732;27.192;2023-05-24T05:18:23;99510.47;;;18.09;100.00
62201;BME280;48197;42.732;27.192;2023-05-24T05:20:50;99509.00;;;18.35;100.00
62201;BME280;48197;42.732;27.192;2023-05-24T05:23:17;99516.81;;;18.50;100.00
62201;BME280;48197;42.732;27.192;2023-05-24T05:25:44;99512.16;;;18.74;100.00
62201;BME280;48197;42.732;27.192;2023-05-24T05:28:11;99510.47;;;18.00;100.00
62201;BME280;48197;42.732;27.192;2023-05-24T05:30:38;99510.66;;;17.21;100.00
62201;BME280;48197;42.732;27.192;2023-05-24T05:33:05;99505.31;;;16.79;100.00
62201;BME280;48197;42.732;27.192;2023-05-24T05:35:33;99503.00;;;16.77;100.00
62201;BME280;48197;42.732;27.192;2023-05-24T05:38:00;99498.66;;;16.76;100.00
62201;BME280;48197;42.732;27.192;2023-05-24T05:40:26;99513.03;;;16.74;100.00
62201;BME280;48197;42.732;27.192;2023-05-24T05:42:53;99507.59;;;16.71;100.00
62201;BME280;48197;42.732;27.192;2023-05-24T05:45:20;99511.88;;;16.98;100.00
62201;BME280;48197;42.732;27.192;2023-05-24T05:47:47;99518.22;;;16.98;100.00
62201;BME280;48197;42.732;27.192;2023-05-24T05:50:14;99509.13;;;17.51;100.00
62201;BME280;48197;42.732;27.192;2023-05-24T05:52:41;99514.78;;;18.69;100.00
62201;BME280;48197;42.732;27.192;2023-05-24T05:55:08;99526.00;;;19.24;100.00
62201;BME280;48197;42.732;27.192;2023-05-24T05:57:36;99522.19;;;19.64;100.00
62201;BME280;48197;42.732;27.192;2023-05-24T06:00:04;99515.22;;;20.84;100.00
62201;BME280;48197;42.732;27.192;2023-05-24T06:02:31;99521.38;;;20.73;100.00
62201;BME280;48197;42.732;27.192;2023-05-24T06:04:58;99515.50;;;20.86;100.00
62201;BME280;48197;42.732;27.192;2023-05-24T06:07:25;99523.94;;;21.69;100.00
62201;BME280;48197;42.732;27.192;2023-05-24T06:10:01;99522.81;;;22.67;100.00
62201;BME280;48197;42.732;27.192;2023-05-24T06:12:28;99530.75;;;23.30;100.00
62201;BME280;48197;42.732;27.192;2023-05-24T06:14:55;99541.94;;;23.77;100.00
62201;BME280;48197;42.732;27.192;2023-05-24T06:17:23;99533.09;;;24.76;100.00
62201;BME280;48197;42.732;27.192;2023-05-24T06:19:50;99538.16;;;25.32;100.00
62201;BME280;48197;42.732;27.192;2023-05-24T06:22:19;99536.97;;;23.98;100.00
62201;BME280;48197;42.732;27.192;2023-05-24T06:24:47;99538.97;;;23.60;100.00
62201;BME280;48197;42.732;27.192;2023-05-24T06:27:14;99532.28;;;24.70;100.00
62201;BME280;48197;42.732;27.192;2023-05-24T06:29:41;99529.13;;;26.40;100.00
62201;BME280;48197;42.732;27.192;2023-05-24T06:32:09;99532.72;;;27.16;100.00
62201;BME280;48197;42.732;27.192;2023-05-24T06:34:36;99529.63;;;28.16;100.00
62201;BME280;48197;42.732;27.192;2023-05-24T06:37:03;99533.72;;;28.45;96.76
62201;BME280;48197;42.732;27.192;2023-05-24T06:39:30;99535.41;;;28.60;93.27
62201;BME280;48197;42.732;27.192;2023-05-24T06:41:57;99535.97;;;28.77;92.51
62201;BME280;48197;42.732;27.192;2023-05-24T06:44:24;99534.88;;;28.80;89.54
62201;BME280;48197;42.732;27.192;2023-05-24T06:46:59;99534.75;;;26.52;98.00
62201;BME280;48197;42.732;27.192;2023-05-24T06:49:26;99524.84;;;24.72;100.00
62201;BME280;48197;42.732;27.192;2023-05-24T06:51:53;99526.88;;;24.60;100.00
62201;BME280;48197;42.732;27.192;2023-05-24T06:54:20;99525.25;;;25.19;100.00
62201;BME280;48197;42.732;27.192;2023-05-24T06:56:47;99527.94;;;26.07;100.00
62201;BME280;48197;42.732;27.192;2023-05-24T06:59:14;99533.06;;;27.79;95.73
62201;BME280;48197;42.732;27.192;2023-05-24T07:01:41;99524.94;;;29.11;88.95
62201;BME280;48197;42.732;27.192;2023-05-24T07:04:08;99535.00;;;27.95;92.15
62201;BME280;48197;42.732;27.192;2023-05-24T07:06:35;99534.38;;;27.42;94.12
62201;BME280;48197;42.732;27.192;2023-05-24T07:09:05;99528.63;;;28.14;92.31
62201;BME280;48197;42.732;27.192;2023-05-24T07:11:32;99529.50;;;28.58;90.12
62201;BME280;48197;42.732;27.192;2023-05-24T07:13:59;99534.19;;;28.55;90.51
62201;BME280;48197;42.732;27.192;2023-05-24T07:16:26;99528.41;;;28.36;91.62
62201;BME280;48197;42.732;27.192;2023-05-24T07:18:53;99525.81;;;29.58;85.33
62201;BME280;48197;42.732;27.192;2023-05-24T07:21:20;99523.81;;;30.30;73.20
62201;BME280;48197;42.732;27.192;2023-05-24T07:23:48;99525.66;;;30.68;74.09
62201;BME280;48197;42.732;27.192;2023-05-24T07:26:15;99528.22;;;29.99;70.98
62201;BME280;48197;42.732;27.192;2023-05-24T07:28:42;99529.94;;;28.37;75.90
62201;BME280;48197;42.732;27.192;2023-05-24T07:31:10;99531.44;;;26.59;81.32
62201;BME280;48197;42.732;27.192;2023-05-24T07:33:37;99535.13;;;26.08;83.07
62201;BME280;48197;42.732;27.192;2023-05-24T07:36:04;99531.69;;;26.61;78.92
62201;BME280;48197;42.732;27.192;2023-05-24T07:38:32;99543.09;;;25.71;80.26
62201;BME280;48197;42.732;27.192;2023-05-24T07:41:00;99532.06;;;26.93;77.49
62201;BME280;48197;42.732;27.192;2023-05-24T07:43:28;99541.28;;;27.88;74.93
62201;BME280;48197;42.732;27.192;2023-05-24T07:45:55;99545.03;;;27.66;74.70
62201;BME280;48197;42.732;27.192;2023-05-24T07:48:22;99537.28;;;28.27;72.96
62201;BME280;48197;42.732;27.192;2023-05-24T07:50:49;99504.31;;;28.43;65.40
62201;BME280;48197;42.732;27.192;2023-05-24T07:53:17;99534.75;;;28.23;64.59
62201;BME280;48197;42.732;27.192;2023-05-24T07:55:45;99527.97;;;29.51;61.32
62201;BME280;48197;42.732;27.192;2023-05-24T07:58:12;99522.38;;;29.78;58.21
62201;BME280;48197;42.732;27.192;2023-05-24T08:00:39;99537.22;;;28.08;61.61
62201;BME280;48197;42.732;27.192;2023-05-24T08:03:05;99537.28;;;26.78;65.25
62201;BME280;48197;42.732;27.192;2023-05-24T08:05:32;99541.53;;;26.32;67.42
62201;BME280;48197;42.732;27.192;2023-05-24T08:07:59;99538.72;;;28.15;63.23
62201;BME280;48197;42.732;27.192;2023-05-24T08:10:26;99534.88;;;30.47;57.72
62201;BME280;48197;42.732;27.192;2023-05-24T08:12:53;99516.78;;;31.95;49.53
62201;BME280;48197;42.732;27.192;2023-05-24T08:15:21;99533.06;;;33.02;41.44
62201;BME280;48197;42.732;27.192;2023-05-24T08:17:48;99539.41;;;33.08;39.71
62201;BME280;48197;42.732;27.192;2023-05-24T08:20:15;99540.94;;;33.09;37.09
62201;BME280;48197;42.732;27.192;2023-05-24T08:22:43;99542.44;;;32.38;36.59
62201;BME280;48197;42.732;27.192;2023-05-24T08:25:10;99539.22;;;31.49;38.01
62201;BME280;48197;42.732;27.192;2023-05-24T08:27:40;99554.13;;;28.93;41.78
62201;BME280;48197;42.732;27.192;2023-05-24T08:30:08;99554.72;;;28.12;42.31
62201;BME280;48197;42.732;27.192;2023-05-24T08:32:34;99544.06;;;27.94;44.76
62201;BME280;48197;42.732;27.192;2023-05-24T08:35:01;99545.03;;;29.19;40.72
62201;BME280;48197;42.732;27.192;2023-05-24T08:37:28;99551.66;;;29.60;39.85
62201;BME280;48197;42.732;27.192;2023-05-24T08:39:56;99545.09;;;30.43;38.50
62201;BME280;48197;42.732;27.192;2023-05-24T08:42:24;99534.94;;;31.43;38.38
62201;BME280;48197;42.732;27.192;2023-05-24T08:44:57;99540.28;;;32.30;36.66
62201;BME280;48197;42.732;27.192;2023-05-24T08:47:28;99546.19;;;32.90;34.96
62201;BME280;48197;42.732;27.192;2023-05-24T08:49:56;99544.75;;;32.68;35.00
62201;BME280;48197;42.732;27.192;2023-05-24T08:52:23;99544.28;;;32.27;34.46
62201;BME280;48197;42.732;27.192;2023-05-24T08:54:50;99551.34;;;31.84;35.61
62201;BME280;48197;42.732;27.192;2023-05-24T08:57:18;99558.19;;;31.60;36.42
62201;BME280;48197;42.732;27.192;2023-05-24T08:59:45;99548.38;;;31.69;35.27
62201;BME280;48197;42.732;27.192;2023-05-24T09:02:12;99554.47;;;31.18;36.57
62201;BME280;48197;42.732;27.192;2023-05-24T09:04:40;99549.22;;;30.95;37.89
62201;BME280;48197;42.732;27.192;2023-05-24T09:07:11;99542.84;;;31.16;38.93
62201;BME280;48197;42.732;27.192;2023-05-24T09:09:38;99545.03;;;31.09;39.48
62201;BME280;48197;42.732;27.192;2023-05-24T09:12:10;99540.66;;;31.43;39.24
62201;BME280;48197;42.732;27.192;2023-05-24T09:14:40;99548.06;;;31.59;38.09
62201;BME280;48197;42.732;27.192;2023-05-24T09:17:11;99548.28;;;31.61;36.62
62201;BME280;48197;42.732;27.192;2023-05-24T09:19:43;99537.06;;;31.29;36.52
62201;BME280;48197;42.732;27.192;2023-05-24T09:22:14;99544.72;;;29.55;40.26
62201;BME280;48197;42.732;27.192;2023-05-24T09:24:48;99546.09;;;28.48;42.33
62201;BME280;48197;42.732;27.192;2023-05-24T09:27:21;99549.41;;;28.03;43.45
62201;BME280;48197;42.732;27.192;2023-05-24T09:29:48;99547.38;;;27.26;44.40
62201;BME280;48197;42.732;27.192;2023-05-24T09:32:17;99559.25;;;26.43;45.31
62201;BME280;48197;42.732;27.192;2023-05-24T09:34:45;99557.03;;;25.97;46.50
62201;BME280;48197;42.732;27.192;2023-05-24T09:37:15;99555.97;;;25.94;47.36
62201;BME280;48197;42.732;27.192;2023-05-24T10:10:54;99530.50;;;27.75;49.43
62201;BME280;48197;42.732;27.192;2023-05-24T10:13:22;99535.06;;;27.89;48.26
62201;BME280;48197;42.732;27.192;2023-05-24T10:15:49;99532.78;;;28.13;48.28
62201;BME280;48197;42.732;27.192;2023-05-24T10:18:16;99533.44;;;28.00;48.34
62201;BME280;48197;42.732;27.192;2023-05-24T10:20:43;99541.03;;;27.50;50.03
62201;BME280;48197;42.732;27.192;2023-05-24T10:23:10;99542.75;;;26.47;51.19
62201;BME280;48197;42.732;27.192;2023-05-24T10:25:41;99544.13;;;25.62;53.85
62201;BME280;48197;42.732;27.192;2023-05-24T10:28:10;99545.56;;;25.18;56.07
62201;BME280;48197;42.732;27.192;2023-05-24T10:30:44;99542.03;;;24.69;57.28
62201;BME280;48197;42.732;27.192;2023-05-24T10:33:15;99546.69;;;24.72;57.50
62201;BME280;48197;42.732;27.192;2023-05-24T10:35:42;99556.81;;;24.95;57.17
62201;BME280;48197;42.732;27.192;2023-05-24T10:38:09;99550.69;;;25.08;56.66
62201;BME280;48197;42.732;27.192;2023-05-24T10:40:39;99547.31;;;25.04;57.01
62201;BME280;48197;42.732;27.192;2023-05-24T10:43:07;99547.56;;;25.00;57.49
62201;BME280;48197;42.732;27.192;2023-05-24T10:45:33;99544.13;;;24.74;58.60
62201;BME280;48197;42.732;27.192;2023-05-24T10:48:58;99533.44;;;24.46;59.49
62201;BME280;48197;42.732;27.192;2023-05-24T10:50:49;99539.97;;;24.20;60.75
62201;BME280;48197;42.732;27.192;2023-05-24T10:53:17;99546.34;;;24.15;61.17
62201;BME280;48197;42.732;27.192;2023-05-24T10:58:21;99542.06;;;23.88;62.75
62201;BME280;48197;42.732;27.192;2023-05-24T11:00:52;99540.88;;;23.74;62.49
62201;BME280;48197;42.732;27.192;2023-05-24T11:03:19;99539.50;;;23.64;61.86
62201;BME280;48197;42.732;27.192;2023-05-24T11:05:52;99535.50;;;24.08;61.13
62201;BME280;48197;42.732;27.192;2023-05-24T11:08:23;99535.53;;;24.51;59.40
62201;BME280;48197;42.732;27.192;2023-05-24T11:13:32;99526.09;;;25.71;55.91
62201;BME280;48197;42.732;27.192;2023-05-24T11:15:58;99519.41;;;26.13;54.75
62201;BME280;48197;42.732;27.192;2023-05-24T11:18:25;99524.19;;;26.63;53.12
62201;BME280;48197;42.732;27.192;2023-05-24T11:20:52;99521.47;;;26.07;53.50
62201;BME280;48197;42.732;27.192;2023-05-24T11:23:18;99524.56;;;25.64;54.96
62201;BME280;48197;42.732;27.192;2023-05-24T11:25:48;99529.16;;;25.27;55.93
62201;BME280;48197;42.732;27.192;2023-05-24T11:28:15;99526.22;;;24.88;56.59
62201;BME280;48197;42.732;27.192;2023-05-24T11:30:43;99524.31;;;24.62;57.69
62201;BME280;48197;42.732;27.192;2023-05-24T11:33:14;99530.31;;;24.38;57.68
62201;BME280;48197;42.732;27.192;2023-05-24T11:35:41;99532.66;;;24.02;58.76
62201;BME280;48197;42.732;27.192;2023-05-24T11:38:11;99550.50;;;23.88;60.29
62201;BME280;48197;42.732;27.192;2023-05-24T11:40:40;99549.91;;;23.78;60.08
62201;BME280;48197;42.732;27.192;2023-05-24T11:43:12;99546.19;;;23.93;59.93
62201;BME280;48197;42.732;27.192;2023-05-24T11:45:42;99538.13;;;24.17;59.33
62201;BME280;48197;42.732;27.192;2023-05-24T11:48:10;99536.41;;;24.74;58.13
62201;BME280;48197;42.732;27.192;2023-05-24T11:50:39;99530.00;;;24.74;56.89
62201;BME280;48197;42.732;27.192;2023-05-24T11:53:11;99539.03;;;24.83;57.10
62201;BME280;48197;42.732;27.192;2023-05-24T11:55:39;99535.13;;;25.75;55.98
62201;BME280;48197;42.732;27.192;2023-05-24T11:58:13;99525.88;;;25.91;54.46
62201;BME280;48197;42.732;27.192;2023-05-24T12:00:45;99525.09;;;25.45;55.17
62201;BME280;48197;42.732;27.192;2023-05-24T12:03:12;99524.56;;;25.53;54.28
62201;BME280;48197;42.732;27.192;2023-05-24T12:05:39;99526.00;;;27.14;50.80
62201;BME280;48197;42.732;27.192;2023-05-24T12:08:07;99521.00;;;28.03;48.63
62201;BME280;48197;42.732;27.192;2023-05-24T12:10:35;99516.44;;;28.43;47.15
62201;BME280;48197;42.732;27.192;2023-05-24T12:13:03;99506.38;;;28.42;46.25
62201;BME280;48197;42.732;27.192;2023-05-24T12:15:30;99510.16;;;28.01;47.02
62201;BME280;48197;42.732;27.192;2023-05-24T12:17:57;99495.25;;;26.82;48.56
62201;BME280;48197;42.732;27.192;2023-05-24T12:20:26;99491.63;;;26.06;50.51
62201;BME280;48197;42.732;27.192;2023-05-24T12:22:54;99494.38;;;26.98;49.61
62201;BME280;48197;42.732;27.192;2023-05-24T12:25:21;99498.50;;;28.05;46.98
62201;BME280;48197;42.732;27.192;2023-05-24T12:27:55;99498.91;;;28.64;45.63
62201;BME280;48197;42.732;27.192;2023-05-24T12:30:25;99482.16;;;28.60;44.78
62201;BME280;48197;42.732;27.192;2023-05-24T12:32:52;99488.13;;;27.53;47.03
62201;BME280;48197;42.732;27.192;2023-05-24T12:35:20;99488.97;;;26.42;49.29
62201;BME280;48197;42.732;27.192;2023-05-24T12:37:47;99488.56;;;25.53;51.12
62201;BME280;48197;42.732;27.192;2023-05-24T12:40:14;99487.13;;;24.81;53.03
62201;BME280;48197;42.732;27.192;2023-05-24T12:42:42;99497.31;;;24.13;55.23
62201;BME280;48197;42.732;27.192;2023-05-24T12:45:10;99512.03;;;23.59;57.77
62201;BME280;48197;42.732;27.192;2023-05-24T12:47:36;99510.09;;;23.18;59.46
62201;BME280;48197;42.732;27.192;2023-05-24T12:50:05;99512.53;;;22.84;60.78
62201;BME280;48197;42.732;27.192;2023-05-24T12:52:32;99510.72;;;22.61;62.45
62201;BME280;48197;42.732;27.192;2023-05-24T12:54:58;99500.50;;;22.43;63.61
62201;BME280;48197;42.732;27.192;2023-05-24T12:57:25;99511.25;;;22.24;65.12
62201;BME280;48197;42.732;27.192;2023-05-24T12:59:52;99540.88;;;22.05;66.38
62201;BME280;48197;42.732;27.192;2023-05-24T13:02:18;99541.69;;;21.75;69.64
62201;BME280;48197;42.732;27.192;2023-05-24T13:04:45;99543.56;;;21.25;71.53
62201;BME280;48197;42.732;27.192;2023-05-24T13:07:12;99544.31;;;20.71;73.13
62201;BME280;48197;42.732;27.192;2023-05-24T13:09:39;99543.22;;;20.45;72.90
62201;BME280;48197;42.732;27.192;2023-05-24T13:12:06;99542.78;;;20.13;74.42
62201;BME280;48197;42.732;27.192;2023-05-24T13:14:33;99542.81;;;20.04;76.55
62201;BME280;48197;42.732;27.192;2023-05-24T13:16:59;99529.56;;;20.04;78.06
62201;BME280;48197;42.732;27.192;2023-05-24T13:19:26;99523.72;;;20.17;78.32
62201;BME280;48197;42.732;27.192;2023-05-24T13:21:52;99523.16;;;20.37;77.50
62201;BME280;48197;42.732;27.192;2023-05-24T13:24:19;99518.88;;;20.51;77.68
62201;BME280;48197;42.732;27.192;2023-05-24T13:26:46;99519.28;;;20.58;77.87
62201;BME280;48197;42.732;27.192;2023-05-24T13:29:16;99514.22;;;20.72;77.93
62201;BME280;48197;42.732;27.192;2023-05-24T13:31:43;99506.06;;;20.74;77.79
62201;BME280;48197;42.732;27.192;2023-05-24T13:34:10;99506.31;;;20.85;77.85